createdAt,value
2022-07-29T00:05:58.218Z,63
2022-07-29T00:15:58.515Z,63
2022-07-29T00:35:59.767Z,64
2022-07-29T00:46:00.587Z,65
2022-07-29T00:56:01.120Z,65
2022-07-29T01:06:01.885Z,66
2022-07-29T01:16:02.646Z,66
2022-07-29T01:36:03.619Z,67
2022-07-29T01:46:04.542Z,68
2022-07-29T01:56:04.875Z,68
2022-07-29T02:06:05.561Z,69
2022-07-29T02:16:06.151Z,69
2022-07-29T02:36:07.043Z,69
2022-07-29T02:46:12.646Z,69
2022-07-29T02:56:08.031Z,70
2022-07-29T03:06:08.353Z,70
2022-07-29T03:16:09.273Z,70
2022-07-29T03:46:10.644Z,70
2022-07-29T04:16:12.176Z,70
2022-07-29T04:36:28.436Z,70
2022-07-29T05:16:16.749Z,74
2022-07-29T05:36:18.097Z,78
2022-07-29T05:56:18.972Z,79
2022-07-29T06:16:28.825Z,78
2022-07-29T06:26:30.283Z,79
2022-07-29T06:36:20.727Z,80
2022-07-29T06:46:21.540Z,80
2022-07-29T07:06:23.184Z,80
2022-07-29T07:26:23.964Z,81
2022-07-29T07:46:25.217Z,81
2022-07-29T07:56:25.759Z,80
2022-07-29T08:06:26.665Z,81
2022-07-29T08:26:27.234Z,77
2022-07-29T08:46:28.712Z,76
2022-07-29T08:56:28.997Z,75
2022-07-29T09:16:51.176Z,77
2022-07-29T09:26:30.840Z,77
2022-07-29T11:16:36.961Z,86
2022-07-29T11:26:37.498Z,85
2022-07-29T11:36:38.184Z,84
2022-07-29T11:46:38.804Z,84
2022-07-29T12:16:41.660Z,76
2022-07-29T12:26:41.866Z,75
2022-07-29T12:36:42.129Z,66
2022-07-29T12:46:42.984Z,66
2022-07-29T12:56:44.286Z,62
2022-07-29T13:06:45.843Z,62
2022-07-29T13:16:44.609Z,60
2022-07-29T13:26:45.377Z,62
2022-07-29T13:36:45.842Z,63
2022-07-29T13:46:46.392Z,62
2022-07-29T13:56:46.850Z,63
2022-07-29T14:06:47.577Z,63
2022-07-29T14:16:51.975Z,63
2022-07-29T14:26:48.832Z,64
2022-07-29T14:36:49.923Z,60
2022-07-29T14:46:50.537Z,60
2022-07-29T14:56:50.788Z,61
2022-07-29T15:06:51.682Z,57
2022-07-29T15:16:52.818Z,60
2022-07-29T15:36:53.679Z,61
2022-07-29T15:46:54.200Z,60
2022-07-29T15:56:54.725Z,59
2022-07-29T16:06:55.996Z,59
2022-07-29T16:16:57.022Z,57
2022-07-29T16:26:57.549Z,55
2022-07-29T16:36:58.757Z,58
2022-07-29T16:46:58.693Z,54
2022-07-29T16:56:59.804Z,57
2022-07-29T17:06:59.988Z,59
2022-07-29T17:17:02.460Z,61
2022-07-29T17:37:01.569Z,61
2022-07-29T17:47:02.439Z,61
2022-07-29T17:57:03.268Z,60
2022-07-29T18:07:03.606Z,62
2022-07-29T18:17:04.234Z,64
2022-07-29T18:37:05.513Z,65
2022-07-29T18:47:06.191Z,66
2022-07-29T18:57:54.051Z,66
2022-07-29T19:07:07.095Z,68
2022-07-29T19:17:07.955Z,69
2022-07-29T19:27:09.029Z,71
2022-07-29T19:37:09.740Z,72
2022-07-29T19:47:10.504Z,73
2022-07-29T19:57:11.492Z,73
2022-07-29T20:07:12.305Z,74
2022-07-29T20:17:12.475Z,75
2022-07-29T20:27:13.917Z,76
2022-07-29T20:37:13.668Z,77
2022-07-29T20:47:13.826Z,77
2022-07-29T20:57:14.587Z,78
2022-07-29T21:07:15.426Z,80
2022-07-29T21:17:15.768Z,81
2022-07-29T21:27:20.997Z,83
2022-07-29T21:37:17.144Z,84
2022-07-29T21:47:17.908Z,84
2022-07-29T22:07:19.137Z,86
2022-07-29T22:17:19.324Z,87
2022-07-29T22:27:20.023Z,88
2022-07-29T22:47:38.682Z,89
2022-07-29T23:07:23.056Z,90
2022-07-29T23:17:23.748Z,92
2022-07-29T23:27:24.706Z,92
